createdAt,value
2023-05-22T00:00:10.477Z,40.27
2023-05-22T00:02:36.961Z,39.94
2023-05-22T00:05:03.638Z,40.12
2023-05-22T00:07:30.122Z,39.98
2023-05-22T00:09:56.621Z,39.95
2023-05-22T00:12:23.229Z,40.16
2023-05-22T00:14:49.600Z,40.03
2023-05-22T00:17:15.986Z,40.17
2023-05-22T00:19:42.649Z,40.08
2023-05-22T00:22:09.068Z,39.79
2023-05-22T00:24:35.423Z,39.99
2023-05-22T00:27:02.047Z,39.97
2023-05-22T00:29:28.442Z,39.99
2023-05-22T00:31:54.845Z,40.10
2023-05-22T00:34:21.281Z,40.00
2023-05-22T00:36:47.816Z,40.09
2023-05-22T00:39:14.333Z,40.11
2023-05-22T00:41:40.721Z,39.75
2023-05-22T00:44:07.172Z,40.08
2023-05-22T00:46:33.596Z,39.85
2023-05-22T00:48:59.965Z,40.09
2023-05-22T00:51:26.341Z,39.83
2023-05-22T00:53:52.701Z,39.92
2023-05-22T00:56:19.090Z,39.69
2023-05-22T00:58:45.487Z,39.67
2023-05-22T01:01:11.902Z,39.99
2023-05-22T01:03:38.479Z,39.79
2023-05-22T01:06:04.892Z,39.74
2023-05-22T01:08:31.267Z,39.72
2023-05-22T01:10:57.630Z,39.83
2023-05-22T01:13:23.999Z,39.56
2023-05-22T01:15:50.367Z,39.78
2023-05-22T01:18:16.799Z,39.88
2023-05-22T01:20:43.227Z,39.62
2023-05-22T01:23:09.632Z,39.67
2023-05-22T01:25:36.051Z,39.76
2023-05-22T01:28:02.490Z,39.48
2023-05-22T01:30:28.919Z,39.66
2023-05-22T01:32:55.407Z,39.47
2023-05-22T01:35:22.012Z,39.81
2023-05-22T01:37:48.388Z,39.58
2023-05-22T01:40:15.308Z,39.36
2023-05-22T01:42:41.699Z,39.51
2023-05-22T01:45:08.454Z,39.56
2023-05-22T01:47:34.855Z,39.29
2023-05-22T01:50:01.226Z,39.57
2023-05-22T01:52:27.620Z,39.58
2023-05-22T01:54:54.015Z,39.26
2023-05-22T01:57:20.413Z,39.53
2023-05-22T01:59:46.854Z,39.53
2023-05-22T02:02:13.249Z,39.18
2023-05-22T02:04:39.716Z,39.29
2023-05-22T02:07:06.095Z,39.13
2023-05-22T02:09:32.489Z,39.20
2023-05-22T02:11:58.859Z,39.26
2023-05-22T02:14:25.519Z,39.00
2023-05-22T02:16:51.877Z,39.36
2023-05-22T02:19:18.321Z,39.18
2023-05-22T02:21:44.774Z,38.92
2023-05-22T02:24:11.138Z,39.11
2023-05-22T02:26:37.561Z,39.26
2023-05-22T02:29:04.011Z,39.26
2023-05-22T02:31:30.442Z,39.04
2023-05-22T02:33:56.861Z,38.99
2023-05-22T02:36:23.299Z,39.08
2023-05-22T02:38:49.761Z,38.94
2023-05-22T02:41:16.128Z,39.22
2023-05-22T02:43:42.569Z,39.00
2023-05-22T02:46:09.067Z,39.06
2023-05-22T02:48:35.459Z,39.20
2023-05-22T02:51:01.821Z,39.01
2023-05-22T02:53:28.179Z,38.83
2023-05-22T02:55:54.560Z,39.10
2023-05-22T02:58:20.911Z,39.15
2023-05-22T03:00:47.414Z,38.86
2023-05-22T03:03:13.982Z,38.87
2023-05-22T03:05:40.590Z,39.15
2023-05-22T03:08:06.950Z,38.83
2023-05-22T03:10:33.365Z,38.74
2023-05-22T03:12:59.745Z,38.93
2023-05-22T03:15:26.155Z,38.65
2023-05-22T03:17:52.589Z,38.64
2023-05-22T03:20:18.985Z,38.78
2023-05-22T03:22:45.513Z,38.99
2023-05-22T03:25:11.935Z,38.97
2023-05-22T03:27:38.305Z,38.93
2023-05-22T03:30:04.681Z,38.67
2023-05-22T03:32:31.286Z,38.69
2023-05-22T03:34:57.695Z,38.75
2023-05-22T03:37:24.091Z,38.92
2023-05-22T03:39:50.471Z,38.71
2023-05-22T03:42:16.854Z,38.61
2023-05-22T03:44:43.210Z,38.85
2023-05-22T03:47:09.603Z,38.76
2023-05-22T03:49:36.202Z,38.45
2023-05-22T03:52:02.617Z,38.62
2023-05-22T03:54:28.970Z,38.78
2023-05-22T03:56:55.329Z,38.53
2023-05-22T03:59:21.738Z,38.61
2023-05-22T04:01:48.164Z,38.79
2023-05-22T04:04:14.575Z,38.63
2023-05-22T04:06:41.008Z,38.73
2023-05-22T04:09:07.380Z,38.76
2023-05-22T04:11:33.738Z,38.40
2023-05-22T04:14:00.149Z,38.76
2023-05-22T04:16:26.611Z,38.47
2023-05-22T04:18:53.125Z,38.63
2023-05-22T04:21:19.549Z,38.53
2023-05-22T04:23:46.131Z,38.78
2023-05-22T04:26:12.562Z,38.79
2023-05-22T04:28:39.018Z,38.65
2023-05-22T04:31:05.459Z,38.65
2023-05-22T04:33:31.845Z,38.48
2023-05-22T04:35:58.497Z,38.36
2023-05-22T04:38:25.014Z,38.40
2023-05-22T04:40:51.512Z,38.69
2023-05-22T04:43:17.922Z,38.57
2023-05-22T04:45:44.331Z,38.39
2023-05-22T04:48:10.760Z,38.39
2023-05-22T04:50:37.402Z,38.57
2023-05-22T04:53:03.906Z,38.63
2023-05-22T04:55:30.551Z,38.40
2023-05-22T04:57:56.981Z,38.67
2023-05-22T05:00:23.366Z,38.37
2023-05-22T05:02:49.794Z,38.59
2023-05-22T05:05:16.220Z,38.50
2023-05-22T05:07:42.641Z,38.22
2023-05-22T05:10:09.056Z,38.47
2023-05-22T05:12:35.440Z,38.23
2023-05-22T05:15:01.849Z,38.50
2023-05-22T05:17:28.347Z,38.30
2023-05-22T05:19:54.761Z,38.45
2023-05-22T05:22:21.127Z,38.31
2023-05-22T05:24:47.763Z,38.42
2023-05-22T05:27:14.225Z,38.43
2023-05-22T05:29:40.617Z,38.52
2023-05-22T05:32:07.007Z,38.42
2023-05-22T05:34:33.463Z,38.26
2023-05-22T05:36:59.846Z,38.20
2023-05-22T05:39:26.192Z,38.43
2023-05-22T05:41:52.567Z,38.02
2023-05-22T05:44:19.075Z,38.27
2023-05-22T05:46:45.532Z,38.45
2023-05-22T05:49:12.012Z,38.16
2023-05-22T05:51:38.439Z,38.16
2023-05-22T05:54:04.808Z,38.28
2023-05-22T05:56:31.381Z,38.38
2023-05-22T05:58:57.801Z,38.12
2023-05-22T06:01:24.240Z,38.25
2023-05-22T06:03:50.769Z,38.16
2023-05-22T06:06:17.186Z,38.31
2023-05-22T06:08:43.865Z,38.44
2023-05-22T06:11:10.220Z,38.14
2023-05-22T06:13:36.589Z,38.29
2023-05-22T06:16:05.866Z,38.19
2023-05-22T06:18:33.174Z,37.92
2023-05-22T06:20:59.733Z,38.13
2023-05-22T06:23:26.151Z,37.89
2023-05-22T06:25:52.584Z,37.94
2023-05-22T06:28:20.141Z,37.83
2023-05-22T06:30:46.757Z,38.20
2023-05-22T06:33:13.417Z,38.01
2023-05-22T06:35:39.975Z,38.32
2023-05-22T06:38:06.367Z,38.05
2023-05-22T06:40:32.823Z,37.99
2023-05-22T06:42:59.251Z,38.08
2023-05-22T06:45:25.636Z,38.13
2023-05-22T06:47:52.037Z,38.24
2023-05-22T06:50:18.510Z,37.87
2023-05-22T06:52:44.951Z,37.86
2023-05-22T06:55:11.327Z,38.02
2023-05-22T06:57:37.739Z,37.80
2023-05-22T07:00:04.154Z,37.87
2023-05-22T07:02:30.576Z,37.92
2023-05-22T07:04:57.009Z,37.54
2023-05-22T07:07:23.439Z,37.71
2023-05-22T07:09:49.944Z,37.48
2023-05-22T07:12:16.346Z,37.35
2023-05-22T07:14:42.979Z,36.94
2023-05-22T07:17:09.362Z,37.54
2023-05-22T07:19:35.894Z,37.06
2023-05-22T07:22:02.468Z,37.14
2023-05-22T07:24:28.917Z,37.16
2023-05-22T07:26:55.320Z,37.43
2023-05-22T07:29:23.192Z,36.98
2023-05-22T07:31:49.893Z,36.91
2023-05-22T07:34:16.284Z,37.37
2023-05-22T07:36:42.703Z,37.25
2023-05-22T07:39:09.115Z,37.38
2023-05-22T07:41:35.492Z,37.19
2023-05-22T07:44:01.899Z,36.91
2023-05-22T07:46:28.292Z,36.72
2023-05-22T07:48:54.737Z,37.14
2023-05-22T07:51:21.211Z,36.70
2023-05-22T07:53:47.627Z,36.87
2023-05-22T07:56:14.049Z,37.07
2023-05-22T07:58:40.458Z,36.75
2023-05-22T08:01:08.783Z,37.30
2023-05-22T08:03:36.096Z,36.88
2023-05-22T08:06:02.619Z,36.87
2023-05-22T08:08:31.301Z,37.09
2023-05-22T08:13:27.797Z,36.75
2023-05-22T08:16:00.265Z,37.23
2023-05-22T08:18:27.508Z,37.01
2023-05-22T08:20:54.958Z,37.20
2023-05-22T08:23:21.507Z,37.22
2023-05-22T08:25:47.884Z,37.14
2023-05-22T08:28:14.258Z,36.77
2023-05-22T08:30:40.866Z,36.57
2023-05-22T08:33:07.541Z,36.88
2023-05-22T08:35:34.116Z,36.77
2023-05-22T08:38:00.492Z,36.82
2023-05-22T08:40:26.907Z,36.39
2023-05-22T08:42:53.328Z,36.31
2023-05-22T08:45:19.973Z,36.51
2023-05-22T08:47:46.415Z,36.81
2023-05-22T08:50:12.858Z,36.68
2023-05-22T08:52:39.212Z,36.31
2023-05-22T08:55:05.583Z,36.67
2023-05-22T08:57:32.000Z,36.12
2023-05-22T08:59:58.449Z,36.15
2023-05-22T09:02:24.880Z,36.58
2023-05-22T09:04:51.376Z,36.36
2023-05-22T09:07:17.951Z,36.41
2023-05-22T09:09:44.391Z,36.13
2023-05-22T09:12:10.811Z,36.43
2023-05-22T09:14:37.244Z,36.23
2023-05-22T09:17:03.706Z,36.24
2023-05-22T09:19:30.231Z,36.81
2023-05-22T09:21:56.736Z,36.74
2023-05-22T09:24:23.200Z,36.77
2023-05-22T09:26:49.702Z,36.41
2023-05-22T09:29:16.152Z,36.98
2023-05-22T09:31:42.603Z,36.65
2023-05-22T09:34:09.106Z,36.84
2023-05-22T09:36:35.489Z,36.96
2023-05-22T09:39:01.938Z,36.73
2023-05-22T09:41:28.338Z,36.83
2023-05-22T09:43:55.114Z,36.83
2023-05-22T09:46:21.580Z,36.96
2023-05-22T09:48:48.038Z,37.05
2023-05-22T09:51:14.675Z,37.17
2023-05-22T09:53:41.118Z,37.22
2023-05-22T09:56:07.550Z,37.23
2023-05-22T09:58:33.981Z,37.47
2023-05-22T10:01:00.379Z,37.35
2023-05-22T10:03:26.806Z,37.53
2023-05-22T10:05:53.362Z,37.14
2023-05-22T10:08:19.787Z,37.07
2023-05-22T10:10:46.441Z,37.43
2023-05-22T10:13:12.815Z,37.27
2023-05-22T10:15:39.189Z,37.15
2023-05-22T10:18:05.827Z,37.20
2023-05-22T10:20:32.471Z,37.22
2023-05-22T10:22:58.880Z,37.07
2023-05-22T10:25:25.251Z,37.50
2023-05-22T10:27:51.621Z,37.39
2023-05-22T10:30:18.205Z,37.29
2023-05-22T10:32:44.756Z,37.09
2023-05-22T10:35:11.151Z,37.47
2023-05-22T10:37:37.593Z,37.77
2023-05-22T10:40:04.027Z,37.41
2023-05-22T10:42:30.496Z,37.52
2023-05-22T10:44:56.937Z,37.69
2023-05-22T10:47:23.331Z,37.66
2023-05-22T10:49:49.740Z,37.58
2023-05-22T10:52:16.169Z,37.43
2023-05-22T10:54:42.596Z,37.30
2023-05-22T10:57:09.000Z,37.84
2023-05-22T10:59:35.610Z,37.82
2023-05-22T11:02:02.084Z,37.88
2023-05-22T11:04:28.567Z,37.99
2023-05-22T11:06:55.012Z,37.70
2023-05-22T11:09:21.532Z,37.79
2023-05-22T11:11:47.956Z,38.23
2023-05-22T11:14:14.411Z,38.28
2023-05-22T11:16:40.913Z,37.86
2023-05-22T11:19:21.870Z,37.88
2023-05-22T11:21:49.466Z,37.89
2023-05-22T11:24:15.955Z,38.15
2023-05-22T11:26:42.309Z,38.50
2023-05-22T11:29:09.567Z,38.39
2023-05-22T11:31:36.018Z,38.39
2023-05-22T11:34:02.656Z,38.25
2023-05-22T11:36:29.024Z,38.41
2023-05-22T11:38:55.379Z,38.50
2023-05-22T11:41:21.786Z,38.33
2023-05-22T11:43:48.195Z,38.28
2023-05-22T11:46:14.667Z,38.46
2023-05-22T11:48:41.043Z,38.55
2023-05-22T11:51:07.453Z,38.84
2023-05-22T11:53:33.984Z,38.48
2023-05-22T11:56:00.449Z,38.78
2023-05-22T11:58:26.861Z,38.82
2023-05-22T12:00:53.278Z,38.97
2023-05-22T12:03:19.730Z,38.86
2023-05-22T12:05:46.246Z,39.23
2023-05-22T12:08:12.913Z,39.26
2023-05-22T12:10:39.530Z,38.85
2023-05-22T12:13:06.234Z,39.23
2023-05-22T12:15:32.644Z,38.75
2023-05-22T12:17:59.078Z,39.12
2023-05-22T12:20:25.553Z,38.97
2023-05-22T12:22:51.939Z,39.25
2023-05-22T12:25:18.356Z,39.02
2023-05-22T12:27:44.767Z,39.03
2023-05-22T12:30:11.214Z,39.11
2023-05-22T12:32:37.792Z,39.51
2023-05-22T12:35:04.233Z,39.40
2023-05-22T12:37:30.646Z,39.53
2023-05-22T12:39:57.051Z,39.39
2023-05-22T12:42:23.420Z,39.53
2023-05-22T12:44:49.772Z,39.27
2023-05-22T12:47:16.323Z,39.74
2023-05-22T12:49:42.748Z,39.36
2023-05-22T12:52:09.148Z,39.82
2023-05-22T12:54:35.703Z,39.64
2023-05-22T12:57:02.075Z,39.34
2023-05-22T12:59:28.448Z,39.52
2023-05-22T13:01:54.976Z,39.49
2023-05-22T13:04:21.445Z,39.61
2023-05-22T13:06:47.869Z,39.86
2023-05-22T13:09:14.572Z,39.50
2023-05-22T13:11:41.249Z,39.79
2023-05-22T13:14:07.706Z,39.47
2023-05-22T13:16:34.201Z,39.49
2023-05-22T13:19:00.726Z,39.74
2023-05-22T13:21:27.373Z,39.91
2023-05-22T13:23:53.784Z,39.59
2023-05-22T13:26:20.228Z,39.60
2023-05-22T13:28:46.734Z,39.91
2023-05-22T13:31:13.139Z,40.25
2023-05-22T13:33:39.622Z,39.71
2023-05-22T13:36:06.069Z,39.70
2023-05-22T13:38:32.519Z,39.92
2023-05-22T13:40:58.920Z,40.09
2023-05-22T13:43:25.314Z,40.21
2023-05-22T13:45:51.734Z,40.08
2023-05-22T13:48:18.141Z,40.06
2023-05-22T13:50:44.800Z,40.09
2023-05-22T13:53:11.274Z,39.82
2023-05-22T13:55:37.878Z,39.96
2023-05-22T13:58:04.518Z,40.13
2023-05-22T14:00:30.892Z,40.14
2023-05-22T14:02:57.634Z,40.14
2023-05-22T14:05:24.108Z,40.27
2023-05-22T14:07:50.607Z,40.13
2023-05-22T14:10:16.973Z,40.79
2023-05-22T14:12:43.392Z,40.51
2023-05-22T14:15:09.820Z,40.51
2023-05-22T14:17:36.345Z,40.51
2023-05-22T14:20:02.899Z,40.59
2023-05-22T14:22:29.326Z,40.15
2023-05-22T14:24:55.720Z,40.13
2023-05-22T14:27:22.071Z,40.66
2023-05-22T14:29:48.427Z,40.47
2023-05-22T14:32:14.816Z,40.74
2023-05-22T14:34:41.185Z,41.26
2023-05-22T14:37:07.559Z,40.95
2023-05-22T14:39:33.927Z,40.54
2023-05-22T14:42:00.275Z,41.06
2023-05-22T14:44:26.772Z,40.52
2023-05-22T14:46:53.271Z,40.78
2023-05-22T14:49:19.676Z,40.58
2023-05-22T14:51:46.083Z,41.32
2023-05-22T14:56:39.099Z,41.34
2023-05-22T14:59:05.474Z,41.48
2023-05-22T15:01:31.868Z,41.77
2023-05-22T15:03:58.316Z,41.73
2023-05-22T15:06:24.745Z,41.75
2023-05-22T15:08:51.124Z,41.96
2023-05-22T15:11:17.572Z,41.79
2023-05-22T15:13:44.060Z,41.76
2023-05-22T15:16:10.604Z,41.68
2023-05-22T15:18:37.151Z,41.66
2023-05-22T15:21:03.882Z,41.68
2023-05-22T15:23:30.296Z,41.37
2023-05-22T15:25:56.658Z,41.56
2023-05-22T15:28:23.136Z,41.25
2023-05-22T15:30:49.528Z,41.62
2023-05-22T15:33:15.954Z,41.72
2023-05-22T15:35:42.437Z,41.69
2023-05-22T15:38:08.837Z,41.74
2023-05-22T15:40:35.210Z,41.20
2023-05-22T15:43:01.829Z,41.17
2023-05-22T15:45:28.619Z,41.26
2023-05-22T15:47:55.187Z,41.65
2023-05-22T15:50:21.620Z,41.28
2023-05-22T15:52:47.986Z,41.30
2023-05-22T15:55:14.582Z,41.43
2023-05-22T15:57:41.000Z,41.00
2023-05-22T16:00:07.684Z,41.42
2023-05-22T16:02:34.109Z,41.02
2023-05-22T16:05:00.743Z,41.22
2023-05-22T16:07:27.131Z,40.99
2023-05-22T16:09:53.533Z,41.10
2023-05-22T16:12:19.899Z,40.92
2023-05-22T16:14:46.275Z,41.17
2023-05-22T16:17:12.649Z,41.30
2023-05-22T16:19:39.188Z,41.05
2023-05-22T16:22:05.599Z,40.67
2023-05-22T16:24:31.973Z,40.96
2023-05-22T16:26:58.351Z,40.75
2023-05-22T16:29:24.795Z,41.02
2023-05-22T16:31:51.251Z,40.77
2023-05-22T16:34:17.755Z,40.74
2023-05-22T16:36:44.152Z,41.15
2023-05-22T16:39:10.552Z,40.99
2023-05-22T16:41:36.972Z,41.15
2023-05-22T16:44:03.403Z,41.03
2023-05-22T16:46:29.816Z,40.66
2023-05-22T16:48:56.330Z,41.09
2023-05-22T16:51:22.703Z,41.16
2023-05-22T16:53:49.304Z,40.75
2023-05-22T16:56:15.694Z,40.92
2023-05-22T16:58:42.065Z,40.82
2023-05-22T17:01:08.755Z,41.07
2023-05-22T17:03:35.476Z,40.91
2023-05-22T17:06:02.063Z,40.89
2023-05-22T17:08:28.493Z,40.97
2023-05-22T17:10:54.949Z,40.97
2023-05-22T17:13:21.365Z,41.00
2023-05-22T17:15:47.768Z,41.05
2023-05-22T17:18:14.212Z,41.20
2023-05-22T17:20:40.641Z,41.11
2023-05-22T17:23:07.760Z,41.30
2023-05-22T17:25:34.192Z,41.10
2023-05-22T17:28:00.587Z,41.34
2023-05-22T17:30:26.966Z,41.06
2023-05-22T17:32:53.493Z,41.43
2023-05-22T17:35:20.239Z,41.06
2023-05-22T17:37:47.052Z,41.55
2023-05-22T17:40:13.504Z,41.14
2023-05-22T17:42:39.933Z,41.43
2023-05-22T17:45:06.495Z,41.41
2023-05-22T17:47:32.937Z,41.52
2023-05-22T17:49:59.365Z,41.01
2023-05-22T17:52:25.776Z,40.87
2023-05-22T17:54:52.263Z,40.80
2023-05-22T17:57:18.631Z,40.84
2023-05-22T17:59:45.064Z,41.09
2023-05-22T18:02:11.476Z,41.24
2023-05-22T18:04:38.018Z,41.26
2023-05-22T18:07:04.557Z,41.17
2023-05-22T18:09:30.993Z,41.30
2023-05-22T18:11:57.413Z,41.23
2023-05-22T18:14:23.834Z,41.30
2023-05-22T18:16:50.199Z,40.75
2023-05-22T18:19:16.574Z,41.33
2023-05-22T18:21:43.052Z,41.13
2023-05-22T18:24:09.479Z,41.22
2023-05-22T18:26:35.884Z,41.06
2023-05-22T18:29:02.483Z,40.95
2023-05-22T18:31:28.928Z,41.07
2023-05-22T18:33:55.321Z,41.06
2023-05-22T18:36:21.675Z,41.27
2023-05-22T18:38:48.082Z,40.96
2023-05-22T18:41:14.523Z,41.33
2023-05-22T18:43:41.004Z,41.16
2023-05-22T18:46:07.434Z,40.69
2023-05-22T18:48:33.820Z,41.22
2023-05-22T18:51:00.356Z,41.06
2023-05-22T18:53:26.983Z,41.00
2023-05-22T18:55:53.375Z,41.08
2023-05-22T18:58:19.723Z,40.96
2023-05-22T19:00:46.286Z,41.05
2023-05-22T19:03:12.745Z,41.02
2023-05-22T19:05:39.140Z,41.31
2023-05-22T19:08:05.700Z,40.98
2023-05-22T19:10:32.078Z,41.23
2023-05-22T19:12:58.492Z,41.00
2023-05-22T19:15:24.858Z,41.44
2023-05-22T19:17:51.322Z,41.26
2023-05-22T19:20:17.783Z,40.93
2023-05-22T19:22:44.158Z,41.28
2023-05-22T19:25:10.570Z,41.09
2023-05-22T19:27:39.178Z,41.18
2023-05-22T19:30:05.933Z,41.35
2023-05-22T19:32:32.479Z,41.07
2023-05-22T19:34:58.946Z,41.25
2023-05-22T19:37:25.330Z,41.37
2023-05-22T19:39:51.739Z,41.41
2023-05-22T19:42:18.187Z,41.56
2023-05-22T19:44:44.801Z,41.23
2023-05-22T19:47:11.229Z,41.08
2023-05-22T19:49:37.641Z,41.19
2023-05-22T19:52:04.038Z,41.03
2023-05-22T19:54:30.434Z,40.95
2023-05-22T19:56:56.817Z,41.41
2023-05-22T19:59:23.186Z,41.00
2023-05-22T20:01:51.318Z,41.15
2023-05-22T20:04:19.889Z,41.07
2023-05-22T20:06:46.356Z,41.41
2023-05-22T20:09:12.740Z,41.51
2023-05-22T20:11:39.154Z,41.43
2023-05-22T20:14:05.572Z,41.38
2023-05-22T20:16:32.160Z,41.42
2023-05-22T20:18:58.604Z,41.45
2023-05-22T20:21:25.014Z,41.24
2023-05-22T20:23:51.475Z,41.47
2023-05-22T20:26:17.850Z,41.39
2023-05-22T20:28:44.213Z,41.46
2023-05-22T20:31:10.596Z,41.25
2023-05-22T20:33:36.951Z,41.14
2023-05-22T20:36:03.479Z,41.35
2023-05-22T20:38:30.131Z,41.37
2023-05-22T20:40:56.547Z,41.09
2023-05-22T20:43:23.014Z,41.52
2023-05-22T20:45:49.409Z,41.39
2023-05-22T20:48:15.827Z,41.23
2023-05-22T20:50:42.276Z,41.71
2023-05-22T20:53:08.784Z,41.30
2023-05-22T20:55:35.234Z,41.19
2023-05-22T20:58:01.674Z,41.62
2023-05-22T21:00:28.147Z,41.33
2023-05-22T21:02:56.379Z,41.70
2023-05-22T21:05:23.957Z,41.70
2023-05-22T21:07:50.407Z,41.66
2023-05-22T21:10:16.850Z,41.74
2023-05-22T21:12:43.251Z,41.46
2023-05-22T21:15:09.614Z,41.69
2023-05-22T21:17:36.058Z,41.56
2023-05-22T21:20:02.670Z,41.54
2023-05-22T21:22:29.069Z,41.60
2023-05-22T21:24:55.595Z,41.67
2023-05-22T21:27:22.016Z,41.34
2023-05-22T21:29:48.426Z,41.46
2023-05-22T21:32:15.024Z,41.45
2023-05-22T21:34:41.467Z,41.58
2023-05-22T21:37:07.923Z,41.63
2023-05-22T21:39:34.319Z,41.58
2023-05-22T21:42:00.694Z,41.45
2023-05-22T21:44:27.302Z,41.50
2023-05-22T21:46:53.847Z,41.53
2023-05-22T21:49:20.375Z,41.45
2023-05-22T21:51:46.763Z,41.64
2023-05-22T21:54:13.165Z,41.49
2023-05-22T21:56:39.534Z,41.24
2023-05-22T21:59:05.996Z,41.72
2023-05-22T22:01:32.439Z,41.46
2023-05-22T22:03:58.916Z,41.76
2023-05-22T22:06:25.464Z,41.72
2023-05-22T22:08:51.874Z,41.41
2023-05-22T22:11:18.254Z,41.80
2023-05-22T22:13:44.659Z,41.30
2023-05-22T22:16:11.100Z,41.41
2023-05-22T22:18:37.575Z,41.36
2023-05-22T22:21:03.991Z,41.38
2023-05-22T22:23:30.398Z,41.64
2023-05-22T22:25:56.798Z,41.43
2023-05-22T22:28:23.191Z,41.74
2023-05-22T22:30:49.556Z,41.43
2023-05-22T22:33:15.934Z,41.28
2023-05-22T22:35:42.545Z,41.57
2023-05-22T22:38:08.996Z,41.73
2023-05-22T22:40:35.474Z,41.65
2023-05-22T22:43:01.877Z,41.75
2023-05-22T22:45:28.305Z,41.30
2023-05-22T22:47:54.709Z,41.70
2023-05-22T22:50:21.183Z,41.45
2023-05-22T22:52:47.576Z,41.71
2023-05-22T22:55:14.049Z,41.63
2023-05-22T22:57:40.632Z,41.48
2023-05-22T23:00:07.041Z,41.44
2023-05-22T23:02:33.486Z,41.59
2023-05-22T23:05:00.050Z,41.53
2023-05-22T23:07:26.760Z,41.71
2023-05-22T23:09:53.349Z,41.48
2023-05-22T23:12:19.726Z,41.51
2023-05-22T23:14:46.086Z,41.76
2023-05-22T23:17:12.502Z,41.81
2023-05-22T23:19:38.877Z,41.37
2023-05-22T23:22:05.240Z,41.70
2023-05-22T23:24:31.615Z,41.81
2023-05-22T23:26:58.001Z,41.64
2023-05-22T23:29:24.386Z,41.78
2023-05-22T23:31:50.828Z,41.88
2023-05-22T23:34:17.309Z,41.56
2023-05-22T23:36:43.686Z,41.95
2023-05-22T23:39:10.185Z,41.55
2023-05-22T23:41:36.544Z,41.49
2023-05-22T23:44:02.969Z,41.85
2023-05-22T23:46:29.453Z,41.61
2023-05-22T23:48:55.948Z,41.52
2023-05-22T23:51:22.321Z,41.53
2023-05-22T23:53:48.723Z,41.92
2023-05-22T23:56:15.161Z,41.65
2023-05-22T23:58:41.534Z,41.55
